Time;durP1;ratioP1;P1;durP2;ratioP2;P2;SDS_P1;SDS_P2;PMS_P1;PMS_P2;Temp;Humidity;BMP_temperature;BMP_pressure;BME280_temperature;BME280_humidity;BME280_pressure;Samples;Min_cycle;Max_cycle;Signal;HPM_P1;HPM_P2
2021/12/20 00:00:18;;;;;;;24.55;3.58;;;;;;;3.64;100.00;101596.59;5252011;28;20067;-79
2021/12/20 00:02:55;;;;;;;28.40;3.10;;;;;;;3.69;100.00;101600.13;5254146;28;20050;-78
2021/12/20 00:05:26;;;;;;;28.10;3.40;;;;;;;3.63;100.00;101600.03;5226972;28;20108;-79
2021/12/20 00:07:56;;;;;;;17.00;3.17;;;;;;;3.64;100.00;101596.59;5250073;28;20103;-78
2021/12/20 00:10:27;;;;;;;20.05;3.00;;;;;;;3.47;100.00;101596.44;5233902;28;20388;-79
2021/12/20 00:12:57;;;;;;;23.20;3.47;;;;;;;3.50;100.00;101599.94;5235536;28;20047;-78
2021/12/20 00:15:28;;;;;;;21.77;3.60;;;;;;;3.48;100.00;101603.34;5250417;28;20051;-79
2021/12/20 00:17:59;;;;;;;18.33;3.22;;;;;;;3.41;100.00;101596.41;5225959;28;20047;-76
2021/12/20 00:20:30;;;;;;;21.65;3.10;;;;;;;3.41;100.00;101601.56;5239836;28;20042;-79
2021/12/20 00:23:01;;;;;;;22.73;2.75;;;;;;;3.34;100.00;101607.53;5265782;22;20036;-77
2021/12/20 00:25:32;;;;;;;25.90;3.15;;;;;;;3.32;100.00;101610.09;5274661;28;20035;-81
2021/12/20 00:28:05;;;;;;;14.35;2.90;;;;;;;3.37;100.00;101608.41;5251678;28;20029;-82
2021/12/20 00:30:37;;;;;;;20.58;2.85;;;;;;;3.34;100.00;101605.81;5277803;28;20016;-79
2021/12/20 00:33:07;;;;;;;24.98;3.53;;;;;;;3.31;100.00;101602.31;5273376;28;20040;-80
2021/12/20 00:35:39;;;;;;;18.60;3.45;;;;;;;3.22;100.00;101602.22;5257855;28;20576;-80
2021/12/20 00:40:59;;;;;;;18.38;3.28;;;;;;;3.16;100.00;101617.69;5256679;28;20031;-82
2021/12/20 00:43:30;;;;;;;17.02;2.92;;;;;;;3.14;100.00;101607.31;5249908;28;20112;-81
2021/12/20 00:46:00;;;;;;;17.08;2.97;;;;;;;3.34;100.00;101610.97;5258943;28;20032;-81
2021/12/20 00:48:31;;;;;;;18.50;3.10;;;;;;;3.11;100.00;101609.00;5249465;28;20565;-81
2021/12/20 00:51:01;;;;;;;17.48;2.70;;;;;;;3.05;100.00;101616.69;5245687;28;20139;-82
2021/12/20 00:53:32;;;;;;;18.35;2.63;;;;;;;3.15;100.00;101609.03;5256709;28;20081;-80
2021/12/20 00:56:03;;;;;;;27.20;3.72;;;;;;;3.03;100.00;101614.06;5253597;28;20288;-81
2021/12/20 00:58:33;;;;;;;19.02;3.38;;;;;;;3.10;100.00;101615.00;5251245;28;20047;-80
2021/12/20 01:01:06;;;;;;;17.20;2.90;;;;;;;2.88;100.00;101623.38;5281753;28;20034;-80
2021/12/20 01:03:37;;;;;;;18.55;2.80;;;;;;;2.91;100.00;101623.41;5266854;28;20020;-79
2021/12/20 01:06:08;;;;;;;18.70;2.63;;;;;;;3.00;100.00;101628.69;5264472;28;20074;-81
2021/12/20 01:08:40;;;;;;;19.15;2.88;;;;;;;2.82;100.00;101634.47;5267973;28;20024;-78
2021/12/20 01:11:13;;;;;;;21.00;2.90;;;;;;;2.84;100.00;101637.09;5270191;28;20016;-79
2021/12/20 01:13:44;;;;;;;12.98;2.35;;;;;;;2.78;100.00;101647.31;5254098;28;20035;-83
2021/12/20 01:16:15;;;;;;;22.50;2.97;;;;;;;2.83;100.00;101640.53;5253401;28;20025;-83
2021/12/20 01:18:46;;;;;;;12.75;2.40;;;;;;;2.82;100.00;101643.94;5249639;28;20029;-80
2021/12/20 01:21:18;;;;;;;17.90;3.30;;;;;;;2.75;100.00;101652.44;5244140;28;20132;-79
2021/12/20 01:23:48;;;;;;;15.73;2.67;;;;;;;2.66;100.00;101642.00;5257457;28;20167;-79
2021/12/20 01:26:18;;;;;;;17.40;2.70;;;;;;;2.73;100.00;101638.66;5248807;28;20151;-81
2021/12/20 01:28:49;;;;;;;15.10;2.85;;;;;;;2.73;100.00;101642.13;5254441;28;20029;-81
2021/12/20 01:31:19;;;;;;;14.77;2.78;;;;;;;2.68;100.00;101640.31;5260299;28;20036;-81
2021/12/20 01:33:51;;;;;;;20.42;3.38;;;;;;;2.69;100.00;101642.06;5261449;28;20038;-82
2021/12/20 01:36:22;;;;;;;17.23;2.85;;;;;;;2.66;100.00;101647.19;5260026;28;20040;-79
2021/12/20 01:38:52;;;;;;;14.90;2.70;;;;;;;2.50;100.00;101655.56;5252374;28;20028;-81
2021/12/20 01:41:23;;;;;;;24.17;3.03;;;;;;;2.50;100.00;101650.41;5257829;28;20111;-81
2021/12/20 01:43:54;;;;;;;17.55;2.85;;;;;;;2.46;100.00;101658.91;5245839;28;20033;-83
2021/12/20 01:46:25;;;;;;;15.13;2.42;;;;;;;2.37;100.00;101663.94;5244490;28;20031;-83
2021/12/20 01:48:55;;;;;;;12.70;2.90;;;;;;;2.30;100.00;101669.88;5250742;28;20021;-80
2021/12/20 01:51:44;;;;;;;18.67;2.90;;;;;;;2.24;100.00;101667.19;5234231;28;20032;-82
2021/12/20 01:54:15;;;;;;;23.35;2.92;;;;;;;2.20;100.00;101673.13;5255902;28;20030;-80
2021/12/20 01:56:45;;;;;;;16.00;2.83;;;;;;;2.16;100.00;101654.16;5248288;28;20027;-82
2021/12/20 01:59:17;;;;;;;20.60;3.15;;;;;;;2.24;100.00;101652.59;5249644;28;20036;-80
2021/12/20 02:01:50;;;;;;;16.88;2.90;;;;;;;2.31;100.00;101659.56;5244512;28;20566;-83
2021/12/20 02:04:21;;;;;;;22.40;3.63;;;;;;;2.25;100.00;101658.59;5252217;28;20088;-79
2021/12/20 02:06:51;;;;;;;20.00;3.53;;;;;;;2.14;100.00;101655.00;5251696;28;20024;-82
2021/12/20 02:09:22;;;;;;;21.58;3.97;;;;;;;2.36;100.00;101654.47;5254564;28;20542;-82
2021/12/20 02:11:52;;;;;;;24.92;3.90;;;;;;;2.14;100.00;101652.44;5239839;28;20469;-82
2021/12/20 02:14:23;;;;;;;30.10;3.60;;;;;;;2.16;100.00;101658.47;5259918;28;20020;-81
2021/12/20 02:16:53;;;;;;;18.92;3.20;;;;;;;1.98;100.00;101663.34;5255842;28;20032;-82
2021/12/20 02:19:25;;;;;;;13.52;2.88;;;;;;;2.02;100.00;101663.41;5256111;28;20099;-80
2021/12/20 02:21:55;;;;;;;19.33;3.05;;;;;;;1.99;100.00;101663.34;5254714;28;20036;-80
2021/12/20 02:24:25;;;;;;;17.98;2.83;;;;;;;2.16;100.00;101661.06;5256356;28;20032;-81
2021/12/20 02:26:56;;;;;;;15.95;2.72;;;;;;;1.89;100.00;101674.38;5263356;28;20032;-80
2021/12/20 02:29:42;;;;;;;14.65;2.60;;;;;;;1.86;100.00;101670.88;5260442;28;20107;-83
2021/12/20 02:37:51;;;;;;;19.02;3.28;;;;;;;1.78;100.00;101659.53;5257106;28;20497;-81
2021/12/20 02:40:22;;;;;;;15.23;3.05;;;;;;;1.67;100.00;101661.09;5255869;28;20031;-81
2021/12/20 02:42:53;;;;;;;23.27;3.72;;;;;;;1.74;100.00;101657.75;5260084;28;20536;-81
2021/12/20 02:45:29;;;;;;;12.10;3.15;;;;;;;1.65;100.00;101667.03;5253577;28;20024;-83
2021/12/20 02:48:00;;;;;;;20.00;2.88;;;;;;;1.40;100.00;101668.31;5249178;28;20417;-80
2021/12/20 02:50:30;;;;;;;14.68;2.67;;;;;;;1.34;100.00;101665.63;5257487;28;20032;-82
2021/12/20 02:53:00;;;;;;;20.05;3.05;;;;;;;1.34;100.00;101659.59;5258127;28;20118;-81
2021/12/20 02:55:31;;;;;;;12.50;2.97;;;;;;;1.32;100.00;101657.00;5259487;28;20029;-81
2021/12/20 02:58:01;;;;;;;30.92;3.22;;;;;;;1.21;100.00;101663.66;5258776;28;20023;-81
2021/12/20 03:00:31;;;;;;;17.05;2.80;;;;;;;1.23;100.00;101661.13;5259287;28;20041;-83
2021/12/20 03:03:02;;;;;;;25.08;3.30;;;;;;;1.19;100.00;101655.03;5262830;28;20020;-81
2021/12/20 03:05:32;;;;;;;17.85;4.68;;;;;;;1.35;100.00;101644.19;5258245;28;20471;-81
2021/12/20 03:08:04;;;;;;;22.45;3.78;;;;;;;1.39;100.00;101642.53;5259276;28;20446;-81
2021/12/20 03:10:39;;;;;;;21.33;3.00;;;;;;;1.36;100.00;101653.66;5258142;28;20459;-81
2021/12/20 03:13:10;;;;;;;14.50;2.72;;;;;;;1.21;100.00;101662.81;5256303;28;20233;-81
2021/12/20 03:15:41;;;;;;;21.00;2.95;;;;;;;1.25;100.00;101664.59;5250967;28;20054;-81
2021/12/20 03:18:15;;;;;;;16.92;2.85;;;;;;;1.20;100.00;101667.06;5255197;28;20024;-81
2021/12/20 03:20:45;;;;;;;19.58;2.47;;;;;;;1.29;100.00;101663.81;5248485;28;20031;-82
2021/12/20 03:23:17;;;;;;;14.35;2.47;;;;;;;1.23;100.00;101661.97;5235681;28;20433;-81
2021/12/20 03:25:49;;;;;;;12.75;3.22;;;;;;;1.25;100.00;101652.56;5252863;28;20039;-80
2021/12/20 03:28:21;;;;;;;22.17;4.15;;;;;;;1.40;100.00;101654.59;5235598;28;20776;-80
2021/12/20 03:30:52;;;;;;;21.77;3.15;;;;;;;1.43;100.00;101662.34;5255273;28;20030;-80
2021/12/20 03:33:23;;;;;;;21.45;3.60;;;;;;;1.36;100.00;101660.50;5260003;28;20031;-81
2021/12/20 03:35:53;;;;;;;12.40;2.80;;;;;;;1.26;100.00;101668.91;5256352;28;20020;-81
2021/12/20 03:38:25;;;;;;;23.17;3.60;;;;;;;1.13;100.00;101675.53;5256345;28;20066;-81
2021/12/20 03:40:55;;;;;;;13.80;3.25;;;;;;;1.17;100.00;101682.47;5235621;28;20122;-80
2021/12/20 03:43:31;;;;;;;20.33;3.42;;;;;;;1.03;100.00;101668.44;5258384;28;20413;-80
2021/12/20 03:46:03;;;;;;;14.48;3.40;;;;;;;1.06;100.00;101677.94;5266243;28;20463;-82
2021/12/20 03:48:36;;;;;;;22.20;4.07;;;;;;;0.97;100.00;101678.63;5261781;28;20020;-81
2021/12/20 03:51:07;;;;;;;25.33;4.22;;;;;;;0.99;100.00;101676.06;5258213;28;20043;-80
2021/12/20 03:53:37;;;;;;;17.17;3.50;;;;;;;0.97;100.00;101678.63;5258302;28;20027;-79
2021/12/20 03:56:08;;;;;;;19.73;3.22;;;;;;;0.90;100.00;101679.31;5261263;28;20048;-79
2021/12/20 03:58:40;;;;;;;18.75;3.20;;;;;;;0.95;100.00;101674.28;5263411;28;21038;-82
2021/12/20 04:01:12;;;;;;;16.30;2.80;;;;;;;1.14;100.00;101679.84;5259624;28;20055;-80
2021/12/20 04:03:44;;;;;;;17.75;2.90;;;;;;;1.11;100.00;101682.34;5256793;28;20024;-81
2021/12/20 04:06:14;;;;;;;15.55;3.15;;;;;;;1.04;100.00;101674.47;5253864;28;20036;-81
2021/12/20 04:08:48;;;;;;;17.30;3.33;;;;;;;1.08;100.00;101687.41;5259478;28;20025;-81
2021/12/20 04:11:19;;;;;;;14.15;2.78;;;;;;;0.98;100.00;101684.63;5254283;28;20040;-80
2021/12/20 04:13:50;;;;;;;16.08;3.55;;;;;;;1.06;100.00;101676.22;5251766;28;20032;-81
2021/12/20 04:16:21;;;;;;;17.08;3.10;;;;;;;1.14;100.00;101677.25;5264772;28;20024;-79
2021/12/20 04:18:51;;;;;;;18.13;3.00;;;;;;;1.22;100.00;101673.09;5261876;28;20024;-79
2021/12/20 04:21:22;;;;;;;22.40;3.03;;;;;;;1.29;100.00;101674.09;5254401;28;20082;-80
2021/12/20 04:23:54;;;;;;;32.90;4.43;;;;;;;1.22;100.00;101670.53;5251246;28;20028;-79
2021/12/20 04:26:25;;;;;;;19.35;3.70;;;;;;;1.19;100.00;101678.22;5252606;28;20478;-82
2021/12/20 04:28:55;;;;;;;24.33;3.47;;;;;;;1.16;100.00;101685.88;5246926;28;20027;-81
2021/12/20 04:31:28;;;;;;;15.07;2.80;;;;;;;1.00;100.00;101686.41;5243429;28;20146;-80
2021/12/20 04:34:00;;;;;;;17.95;3.13;;;;;;;1.21;100.00;101691.97;5261138;28;20028;-78
2021/12/20 04:36:33;;;;;;;18.38;3.15;;;;;;;1.27;100.00;101688.66;5252991;28;20032;-80
2021/12/20 04:39:07;;;;;;;20.90;2.63;;;;;;;1.29;100.00;101674.97;5256743;28;20031;-80
2021/12/20 04:41:39;;;;;;;20.73;3.63;;;;;;;1.14;100.00;101682.41;5258908;28;20246;-80
2021/12/20 04:44:09;;;;;;;18.95;3.42;;;;;;;1.24;100.00;101684.31;5257728;28;20107;-80
2021/12/20 04:46:40;;;;;;;17.83;3.05;;;;;;;1.30;100.00;101674.13;5262431;28;20119;-81
2021/12/20 04:49:11;;;;;;;12.90;2.47;;;;;;;1.31;100.00;101675.00;5259448;28;20097;-81
2021/12/20 04:51:42;;;;;;;13.35;2.30;;;;;;;1.23;100.00;101687.72;5251454;28;20077;-81
2021/12/20 04:54:14;;;;;;;14.15;2.15;;;;;;;1.29;100.00;101686.97;5256839;28;20066;-79
2021/12/20 04:56:45;;;;;;;10.73;2.13;;;;;;;1.29;100.00;101692.13;5253241;28;20032;-80
2021/12/20 04:59:19;;;;;;;17.90;2.90;;;;;;;1.25;100.00;101700.63;5255696;28;20397;-80
2021/12/20 05:01:50;;;;;;;23.65;2.50;;;;;;;1.14;100.00;101687.56;5249241;28;20024;-80
2021/12/20 05:04:20;;;;;;;9.38;2.55;;;;;;;1.15;100.00;101694.44;5253587;28;20039;-81
2021/12/20 05:06:52;;;;;;;18.50;2.53;;;;;;;1.14;100.00;101690.13;5233569;28;20094;-82
2021/12/20 05:09:25;;;;;;;16.98;2.55;;;;;;;1.26;100.00;101695.50;5259606;28;20106;-80
2021/12/20 05:12:09;;;;;;;16.55;2.60;;;;;;;1.17;100.00;101692.75;5235571;28;20439;-81
2021/12/20 05:14:44;;;;;;;16.95;2.53;;;;;;;1.16;100.00;101695.28;5262173;28;20059;-81
2021/12/20 05:17:15;;;;;;;12.98;2.30;;;;;;;1.33;100.00;101697.38;5264082;28;20032;-78
2021/12/20 05:19:45;;;;;;;12.38;2.20;;;;;;;1.18;100.00;101697.06;5255601;28;20248;-81
2021/12/20 05:22:16;;;;;;;10.25;2.72;;;;;;;1.06;100.00;101704.53;5243758;28;20026;-80
2021/12/20 05:24:47;;;;;;;15.20;2.67;;;;;;;0.98;100.00;101713.81;5258771;28;20070;-80
2021/12/20 05:27:18;;;;;;;17.75;3.10;;;;;;;1.09;100.00;101714.03;5257533;28;20020;-78
2021/12/20 05:29:50;;;;;;;14.60;2.92;;;;;;;1.15;100.00;101706.41;5252341;28;20047;-80
2021/12/20 05:32:22;;;;;;;21.98;3.60;;;;;;;1.19;100.00;101710.78;5256140;28;20032;-79
2021/12/20 05:34:54;;;;;;;17.02;2.90;;;;;;;1.24;100.00;101707.47;5251800;28;20037;-78
2021/12/20 05:37:26;;;;;;;13.35;2.63;;;;;;;0.95;100.00;101721.47;5256355;28;20122;-79
2021/12/20 05:39:57;;;;;;;14.85;3.03;;;;;;;1.09;100.00;101720.03;5253520;28;20515;-80
2021/12/20 05:42:27;;;;;;;19.40;3.03;;;;;;;1.08;100.00;101723.44;5253430;28;20077;-81
2021/12/20 05:44:58;;;;;;;19.42;3.22;;;;;;;1.14;100.00;101718.44;5262494;28;20031;-79
2021/12/20 05:47:28;;;;;;;16.67;3.28;;;;;;;1.02;100.00;101732.72;5253042;28;20082;-78
2021/12/20 05:50:00;;;;;;;22.52;3.28;;;;;;;1.03;100.00;101735.34;5238650;28;20024;-79
2021/12/20 05:52:32;;;;;;;20.70;3.40;;;;;;;1.11;100.00;101733.81;5254529;28;20028;-81
2021/12/20 05:55:04;;;;;;;15.77;3.30;;;;;;;1.04;100.00;101731.09;5260000;28;20058;-80
2021/12/20 05:57:36;;;;;;;13.98;3.10;;;;;;;0.83;100.00;101734.06;5256059;28;20151;-80
2021/12/20 06:00:12;;;;;;;14.18;3.22;;;;;;;0.76;100.00;101737.31;5253118;28;20524;-81
2021/12/20 06:02:43;;;;;;;23.55;4.20;;;;;;;0.70;100.00;101739.75;5256553;28;20091;-80
2021/12/20 06:05:13;;;;;;;19.70;3.97;;;;;;;0.98;100.00;101751.53;5251608;28;20073;-81
2021/12/20 06:07:43;;;;;;;19.60;3.67;;;;;;;0.70;100.00;101742.34;5259142;28;20036;-80
2021/12/20 06:10:16;;;;;;;22.27;4.22;;;;;;;0.73;100.00;101759.56;5261447;28;20028;-80
2021/12/20 06:12:47;;;;;;;19.00;4.43;;;;;;;0.71;100.00;101759.50;5255709;28;20020;-80
2021/12/20 06:15:17;;;;;;;23.55;4.43;;;;;;;0.57;100.00;101752.31;5252406;28;20035;-80
2021/12/20 06:17:47;;;;;;;22.08;4.38;;;;;;;0.60;100.00;101760.97;5261051;28;20024;-79
2021/12/20 06:20:18;;;;;;;17.65;4.88;;;;;;;0.87;100.00;101760.72;5253746;28;20111;-79
2021/12/20 06:22:48;;;;;;;25.05;4.95;;;;;;;0.67;100.00;101761.97;5255566;28;20489;-80
2021/12/20 06:25:19;;;;;;;23.42;5.75;;;;;;;0.51;100.00;101758.19;5254229;28;20306;-80
2021/12/20 06:27:49;;;;;;;36.13;6.53;;;;;;;0.45;100.00;101758.03;5257894;28;20548;-80
2021/12/20 06:30:19;;;;;;;22.83;6.32;;;;;;;0.51;100.00;101763.31;5259255;28;20044;-80
2021/12/20 06:32:51;;;;;;;41.42;8.27;;;;;;;0.36;100.00;101767.25;5255265;28;20044;-80
2021/12/20 06:35:23;;;;;;;31.95;6.65;;;;;;;0.36;100.00;101757.81;5233364;28;20178;-80
2021/12/20 06:38:01;;;;;;;42.00;7.93;;;;;;;0.37;100.00;101758.69;5258665;28;20385;-80
2021/12/20 06:40:34;;;;;;;32.75;7.68;;;;;;;0.26;100.00;101770.41;5255478;28;20025;-80
2021/12/20 06:43:04;;;;;;;23.83;6.45;;;;;;;0.61;100.00;101762.72;5250604;28;20020;-81
2021/12/20 06:45:35;;;;;;;30.40;7.53;;;;;;;0.40;100.00;101771.63;5258657;28;20352;-81
2021/12/20 06:48:05;;;;;;;28.73;7.57;;;;;;;0.30;100.00;101767.97;5251166;28;20031;-80
2021/12/20 06:50:36;;;;;;;27.70;6.95;;;;;;;0.37;100.00;101768.97;5249561;28;20122;-81
2021/12/20 06:53:08;;;;;;;27.48;7.55;;;;;;;0.45;100.00;101772.59;5249695;28;20111;-80
2021/12/20 06:55:38;;;;;;;37.50;8.80;;;;;;;0.14;100.00;101773.53;5256941;28;20035;-80
2021/12/20 06:58:08;;;;;;;24.60;7.07;;;;;;;0.23;100.00;101771.19;5240072;28;20032;-81
2021/12/20 07:00:39;;;;;;;33.15;7.97;;;;;;;0.10;100.00;101778.56;5273122;28;20036;-81
2021/12/20 07:03:09;;;;;;;29.00;7.75;;;;;;;0.10;100.00;101778.56;5260972;28;20498;-80
2021/12/20 07:05:41;;;;;;;26.92;7.15;;;;;;;0.15;100.00;101779.53;5256006;28;20047;-80
2021/12/20 07:08:11;;;;;;;26.08;6.95;;;;;;;0.23;100.00;101780.63;5259876;28;20032;-80
2021/12/20 07:10:42;;;;;;;26.02;7.75;;;;;;;0.14;100.00;101781.25;5260870;28;20020;-80
2021/12/20 07:13:14;;;;;;;27.08;8.30;;;;;;;0.06;100.00;101782.75;5252603;28;20029;-80
2021/12/20 07:15:44;;;;;;;33.80;10.30;;;;;;;0.01;100.00;101779.19;5268966;28;20035;-80
2021/12/20 07:18:14;;;;;;;33.67;9.20;;;;;;;0.28;100.00;101774.75;5259744;28;20505;-80
2021/12/20 07:20:46;;;;;;;30.02;9.38;;;;;;;0.35;100.00;101781.78;5259632;28;20077;-80
2021/12/20 07:23:16;;;;;;;27.35;7.32;;;;;;;0.10;100.00;101784.59;5259336;28;20028;-80
2021/12/20 07:25:47;;;;;;;17.75;5.60;;;;;;;0.26;100.00;101791.84;5259128;28;20081;-80
2021/12/20 07:28:17;;;;;;;19.02;6.65;;;;;;;0.17;100.00;101791.59;5248260;28;20268;-80
2021/12/20 07:30:49;;;;;;;27.50;7.57;;;;;;;0.17;100.00;101798.44;5260028;28;20262;-80
2021/12/20 07:33:19;;;;;;;29.02;8.55;;;;;;;0.15;100.00;101800.97;5256548;28;20040;-80
2021/12/20 07:35:51;;;;;;;30.60;9.32;;;;;;;0.11;100.00;101795.72;5260034;28;20505;-80
2021/12/20 07:38:22;;;;;;;30.77;8.73;;;;;;;0.15;100.00;101803.56;5259101;28;20024;-80
2021/12/20 07:40:54;;;;;;;25.20;8.07;;;;;;;0.09;100.00;101803.41;5256717;28;20170;-80
2021/12/20 07:43:26;;;;;;;32.65;11.70;;;;;;;0.37;100.00;101800.69;5256851;28;20032;-80
2021/12/20 07:45:58;;;;;;;34.25;11.77;;;;;;;0.39;100.00;101799.00;5266257;28;20024;-80
2021/12/20 07:48:28;;;;;;;63.10;16.65;;;;;;;0.23;100.00;101799.47;5257380;28;20031;-80
2021/12/20 07:51:01;;;;;;;66.90;17.33;;;;;;;0.52;100.00;101811.34;5257412;28;20032;-80
2021/12/20 07:53:32;;;;;;;70.10;18.55;;;;;;;0.81;100.00;101810.34;5257633;28;20032;-80
2021/12/20 07:56:02;;;;;;;99.20;26.48;;;;;;;1.34;100.00;101808.94;5262277;28;20020;-80
2021/12/20 07:58:33;;;;;;;78.57;22.15;;;;;;;1.40;100.00;101793.63;5265138;28;20024;-80
2021/12/20 08:01:04;;;;;;;65.43;18.05;;;;;;;2.42;100.00;101807.63;5261736;28;20035;-80
2021/12/20 08:03:38;;;;;;;33.97;10.82;;;;;;;2.62;100.00;101801.06;5258662;28;20024;-80
2021/12/20 08:06:12;;;;;;;25.05;8.27;;;;;;;2.80;98.97;101790.16;5261537;28;20024;-80
2021/12/20 08:08:44;;;;;;;24.17;7.28;;;;;;;3.10;96.75;101785.44;5257746;28;20063;-80
2021/12/20 08:11:16;;;;;;;13.45;4.90;;;;;;;4.33;93.63;101780.81;5258418;28;20659;-81
2021/12/20 08:13:46;;;;;;;9.23;3.95;;;;;;;4.76;87.65;101769.97;5262931;28;20020;-81
2021/12/20 08:16:20;;;;;;;9.85;3.83;;;;;;;3.46;90.41;101770.41;5272825;28;20028;-81
2021/12/20 08:18:53;;;;;;;10.00;3.83;;;;;;;3.62;91.33;101789.56;5263237;28;20031;-81
2021/12/20 08:21:25;;;;;;;9.45;3.88;;;;;;;3.75;89.07;101781.09;5253709;28;20020;-81
2021/12/20 08:23:56;;;;;;;9.25;4.20;;;;;;;4.06;88.13;101785.75;5258002;28;20016;-81
2021/12/20 08:26:27;;;;;;;10.27;4.63;;;;;;;4.46;87.73;101787.00;5258651;28;20055;-81
2021/12/20 08:28:57;;;;;;;10.90;3.72;;;;;;;4.98;84.28;101813.28;5246842;28;20085;-81
2021/12/20 08:31:29;;;;;;;8.15;4.28;;;;;;;3.81;90.12;101809.59;5259815;28;20024;-81
2021/12/20 08:34:01;;;;;;;11.05;3.75;;;;;;;4.37;87.27;101821.41;5257662;28;20085;-81
2021/12/20 08:36:31;;;;;;;7.55;3.25;;;;;;;4.50;84.47;101818.06;5259437;28;20032;-81
2021/12/20 08:39:02;;;;;;;11.63;4.70;;;;;;;3.51;88.41;101831.63;5259852;28;20036;-81
2021/12/20 08:41:33;;;;;;;15.00;6.22;;;;;;;2.79;94.24;101835.75;5258692;28;20024;-81
2021/12/20 08:44:03;;;;;;;23.05;9.63;;;;;;;2.71;97.32;101839.91;5259303;28;20481;-81
2021/12/20 08:46:35;;;;;;;12.93;6.22;;;;;;;2.22;98.30;101847.69;5267528;28;20028;-81
2021/12/20 08:49:08;;;;;;;12.57;5.10;;;;;;;2.20;100.00;101845.91;5258206;28;20085;-81
2021/12/20 08:51:39;;;;;;;14.30;5.22;;;;;;;2.09;100.00;101842.25;5256862;28;20024;-81
2021/12/20 08:54:10;;;;;;;13.88;5.30;;;;;;;2.18;100.00;101842.44;5249979;28;20099;-81
2021/12/20 08:56:40;;;;;;;22.77;8.15;;;;;;;2.20;100.00;101840.75;5259460;28;20043;-81
2021/12/20 08:59:12;;;;;;;17.67;6.05;;;;;;;2.57;100.00;101837.97;5257276;28;20418;-81
2021/12/20 09:01:44;;;;;;;10.73;5.72;;;;;;;2.57;98.78;101845.69;5251683;28;20032;-81
2021/12/20 09:04:15;;;;;;;28.40;11.18;;;;;;;2.55;99.84;101844.81;5261086;28;20074;-81
2021/12/20 09:06:46;;;;;;;50.95;20.38;;;;;;;2.70;100.00;101845.06;5255441;28;20024;-81
2021/12/20 09:09:17;;;;;;;55.47;20.80;;;;;;;2.72;100.00;101848.53;5257982;28;20115;-81
2021/12/20 09:11:47;;;;;;;26.15;8.57;;;;;;;2.56;100.00;101843.97;5257520;28;20041;-81
2021/12/20 09:14:19;;;;;;;24.85;8.45;;;;;;;2.15;100.00;101853.53;5259056;28;20397;-81
2021/12/20 09:16:49;;;;;;;23.83;8.57;;;;;;;2.51;100.00;101845.59;5265066;28;20028;-81
2021/12/20 09:19:23;;;;;;;12.68;4.75;;;;;;;2.54;100.00;101845.66;5256490;28;20028;-81
2021/12/20 09:21:53;;;;;;;26.55;9.23;;;;;;;2.60;100.00;101848.31;5239293;28;20032;-81
2021/12/20 09:24:24;;;;;;;12.68;5.63;;;;;;;2.46;100.00;101849.78;5266529;28;20032;-82
2021/12/20 09:26:54;;;;;;;19.95;5.82;;;;;;;2.33;100.00;101860.75;5254386;28;20028;-80
2021/12/20 09:29:26;;;;;;;11.48;4.03;;;;;;;2.37;100.00;101854.81;5244789;28;20389;-82
2021/12/20 09:31:57;;;;;;;13.63;5.07;;;;;;;2.15;100.00;101856.13;5227216;28;20074;-81
2021/12/20 09:34:28;;;;;;;16.20;4.75;;;;;;;2.40;100.00;101852.28;5246310;28;20044;-82
2021/12/20 09:37:04;;;;;;;15.90;6.13;;;;;;;2.07;100.00;101856.81;5244893;28;20059;-81
2021/12/20 09:39:38;;;;;;;22.80;6.50;;;;;;;2.26;100.00;101862.34;5245644;28;20036;-80
2021/12/20 09:42:15;;;;;;;15.23;5.65;;;;;;;2.76;100.00;101855.47;5249166;28;20031;-81
2021/12/20 09:44:45;;;;;;;17.55;6.65;;;;;;;2.97;100.00;101861.84;5248079;28;20025;-81
2021/12/20 09:47:17;;;;;;;16.45;5.78;;;;;;;2.68;100.00;101857.94;5237525;28;20362;-81
2021/12/20 09:49:48;;;;;;;14.32;4.15;;;;;;;2.81;100.00;101859.00;5249140;28;20502;-82
2021/12/20 09:52:18;;;;;;;19.67;5.70;;;;;;;2.71;100.00;101857.13;5253009;28;20074;-82
2021/12/20 09:54:49;;;;;;;19.05;5.88;;;;;;;2.60;100.00;101858.66;5252743;28;20119;-82
2021/12/20 09:57:21;;;;;;;12.18;4.07;;;;;;;2.79;100.00;101853.81;5249692;28;20115;-82
2021/12/20 09:59:56;;;;;;;24.58;9.65;;;;;;;2.90;100.00;101849.72;5253492;28;20532;-81
2021/12/20 10:02:26;;;;;;;15.40;5.47;;;;;;;3.02;99.71;101849.88;5245000;28;20088;-80
2021/12/20 10:04:57;;;;;;;11.50;4.15;;;;;;;3.14;100.00;101851.75;5245459;28;20032;-82
2021/12/20 10:07:28;;;;;;;15.13;4.20;;;;;;;3.21;100.00;101858.78;5246321;28;20504;-82
2021/12/20 10:10:00;;;;;;;10.32;5.45;;;;;;;3.32;98.51;101847.75;5227895;28;20033;-80
2021/12/20 10:12:30;;;;;;;8.68;4.00;;;;;;;3.44;98.11;101852.19;5230619;28;20064;-78
2021/12/20 10:15:06;;;;;;;12.73;5.07;;;;;;;3.30;97.00;101843.38;5248285;28;20052;-79
2021/12/20 10:17:59;;;;;;;19.30;9.45;;;;;;;3.39;96.25;101857.31;5250782;28;20032;-82
2021/12/20 10:20:33;;;;;;;12.60;6.00;;;;;;;3.33;96.95;101856.38;5249198;28;20130;-82
2021/12/20 10:23:19;;;;;;;14.30;6.13;;;;;;;3.23;97.61;101851.91;5244063;28;20016;-82
2021/12/20 10:25:59;;;;;;;23.50;9.63;;;;;;;3.46;96.40;101855.66;5252090;28;20057;-80
2021/12/20 10:28:37;;;;;;;14.63;4.97;;;;;;;3.53;96.61;101857.50;5260852;28;20057;-80
2021/12/20 10:31:16;;;;;;;14.70;5.05;;;;;;;3.50;95.34;101852.31;5268735;28;20035;-81
2021/12/20 10:33:58;;;;;;;21.45;7.78;;;;;;;3.59;94.59;101845.53;5277986;28;20028;-81
2021/12/20 10:36:32;;;;;;;21.05;7.53;;;;;;;3.56;96.81;101850.63;5264938;28;20031;-79
2021/12/20 10:39:06;;;;;;;15.85;7.40;;;;;;;3.59;95.04;101851.56;5254680;28;20032;-81
2021/12/20 10:41:39;;;;;;;12.95;4.70;;;;;;;3.49;95.23;101847.97;5258565;28;20061;-81
2021/12/20 10:44:20;;;;;;;12.32;4.85;;;;;;;3.47;95.74;101850.53;5256935;28;20043;-82
2021/12/20 10:46:56;;;;;;;15.15;5.03;;;;;;;3.45;94.79;101853.94;5258348;28;20028;-79
2021/12/20 10:49:29;;;;;;;11.07;3.30;;;;;;;3.42;96.24;101853.91;5250945;28;20033;-82
2021/12/20 10:52:00;;;;;;;10.45;3.72;;;;;;;3.54;96.08;101856.66;5265702;28;20035;-80
2021/12/20 10:54:32;;;;;;;14.50;4.25;;;;;;;3.66;95.34;101850.81;5256757;28;20045;-82
2021/12/20 10:57:05;;;;;;;13.75;4.50;;;;;;;3.87;94.52;101853.66;5239478;28;20028;-82
2021/12/20 10:59:41;;;;;;;14.18;3.80;;;;;;;3.75;94.00;101858.66;5256769;28;20036;-83
2021/12/20 11:04:51;;;;;;;34.95;11.07;;;;;;;3.82;93.91;101860.47;5262124;28;20080;-80
2021/12/20 11:10:07;;;;;;;11.93;4.05;;;;;;;3.72;93.92;101857.75;5263214;28;20247;-83
2021/12/20 11:12:38;;;;;;;15.50;6.40;;;;;;;3.88;93.86;101852.78;5263305;28;20036;-81
2021/12/20 11:15:11;;;;;;;16.02;4.22;;;;;;;3.83;93.31;101846.72;5247969;28;20570;-81
2021/12/20 11:17:45;;;;;;;14.98;5.28;;;;;;;3.84;94.56;101845.84;5257742;28;20531;-81
2021/12/20 11:20:21;;;;;;;12.68;3.78;;;;;;;3.90;94.45;101845.91;5257816;28;20049;-81
2021/12/20 11:23:03;;;;;;;22.63;8.30;;;;;;;3.81;93.36;101843.22;5254108;28;20039;-81
2021/12/20 11:25:34;;;;;;;86.57;21.98;;;;;;;3.76;93.40;101839.72;5269345;28;20239;-81
2021/12/20 11:28:05;;;;;;;26.05;9.75;;;;;;;3.82;94.10;101850.13;5255502;28;20028;-81
2021/12/20 11:30:36;;;;;;;9.95;3.58;;;;;;;3.69;94.62;101850.84;5250214;28;20109;-81
2021/12/20 11:33:08;;;;;;;20.50;7.05;;;;;;;3.77;94.16;101846.63;5241778;28;20576;-81
2021/12/20 11:35:38;;;;;;;14.80;4.68;;;;;;;3.77;94.47;101845.75;5241213;28;20048;-81
2021/12/20 11:38:09;;;;;;;8.68;2.65;;;;;;;3.86;93.71;101848.44;5252376;28;20116;-81
2021/12/20 11:40:39;;;;;;;11.32;3.40;;;;;;;3.73;93.34;101838.78;5249329;28;20032;-81
2021/12/20 11:43:12;;;;;;;8.90;4.50;;;;;;;3.91;93.37;101839.00;5244009;28;20682;-81
2021/12/20 11:45:45;;;;;;;7.32;2.70;;;;;;;3.87;93.57;101838.13;5251233;28;20454;-81
2021/12/20 11:48:20;;;;;;;7.95;2.35;;;;;;;3.87;92.63;101843.31;5248027;28;20432;-81
2021/12/20 11:50:55;;;;;;;11.40;2.50;;;;;;;3.89;93.16;101849.34;5248746;28;20548;-81
2021/12/20 11:53:34;;;;;;;9.68;1.95;;;;;;;3.85;91.69;101846.72;5248143;28;20020;-81